Time;durP1;ratioP1;P1;durP2;ratioP2;P2;SDS_P1;SDS_P2;PMS_P1;PMS_P2;Temp;Humidity;BMP_temperature;BMP_pressure;BME280_temperature;BME280_humidity;BME280_pressure;Samples;Min_cycle;Max_cycle;Signal;HPM_P1;HPM_P2
2023/01/20 00:00:04;;;;;;;30.33;13.10;;;;;;;10.59;100.00;100840.59;5054887;28;20034;-51
2023/01/20 00:02:37;;;;;;;42.53;16.80;;;;;;;9.87;100.00;100848.59;5055266;28;20061;-50
2023/01/20 00:05:03;;;;;;;43.57;18.97;;;;;;;9.88;100.00;100850.25;5062055;28;20037;-51
2023/01/20 00:07:29;;;;;;;52.53;20.52;;;;;;;9.78;100.00;100859.59;5061303;28;20271;-53
2023/01/20 00:09:55;;;;;;;53.10;22.10;;;;;;;9.88;100.00;100860.94;5055957;28;20029;-53
2023/01/20 00:12:20;;;;;;;58.60;20.97;;;;;;;9.61;100.00;100862.53;5060559;28;20041;-54
2023/01/20 00:14:46;;;;;;;58.37;23.43;;;;;;;10.45;100.00;100865.59;5056903;28;20373;-55
2023/01/20 00:17:11;;;;;;;58.70;22.33;;;;;;;10.65;100.00;100864.91;5053575;28;20057;-53
2023/01/20 00:19:37;;;;;;;54.07;21.90;;;;;;;10.30;100.00;100865.66;5057654;28;20029;-52
2023/01/20 00:22:02;;;;;;;54.30;22.42;;;;;;;10.16;100.00;100873.56;5054722;28;20211;-54
2023/01/20 00:24:28;;;;;;;56.00;21.20;;;;;;;9.89;100.00;100864.47;5056902;28;20616;-54
2023/01/20 00:26:53;;;;;;;60.33;22.70;;;;;;;10.09;100.00;100871.84;5055960;28;20039;-50
2023/01/20 00:29:19;;;;;;;59.00;23.13;;;;;;;10.33;100.00;100868.78;5055263;28;20063;-52
2023/01/20 00:31:44;;;;;;;57.97;24.23;;;;;;;10.63;100.00;100873.16;5054589;28;20279;-52
2023/01/20 00:34:10;;;;;;;56.63;22.40;;;;;;;10.07;100.00;100873.88;5051472;28;20053;-55
2023/01/20 00:36:36;;;;;;;50.93;19.97;;;;;;;10.86;100.00;100874.75;5063295;28;20047;-54
2023/01/20 00:39:02;;;;;;;46.63;19.13;;;;;;;10.93;100.00;100878.28;5061955;28;20033;-53
2023/01/20 00:41:29;;;;;;;41.03;15.93;;;;;;;10.82;99.58;100881.47;5058618;28;20037;-53
2023/01/20 00:43:55;;;;;;;39.63;17.20;;;;;;;11.10;99.04;100884.13;5061982;28;20065;-53
2023/01/20 00:46:21;;;;;;;41.57;18.27;;;;;;;10.91;99.96;100880.31;5061924;28;20037;-53
2023/01/20 00:48:48;;;;;;;41.15;16.98;;;;;;;10.75;100.00;100886.81;5059706;28;20314;-53
2023/01/20 00:51:14;;;;;;;39.03;16.70;;;;;;;10.55;100.00;100883.97;5062108;28;20080;-53
2023/01/20 00:53:40;;;;;;;;;;;;;;;10.06;100.00;100888.25;5062237;28;20045;-52
2023/01/20 00:56:06;;;;;;;40.57;17.80;;;;;;;10.46;100.00;100884.13;5062542;28;19912;-52
2023/01/20 00:58:32;;;;;;;45.08;18.77;;;;;;;10.69;100.00;100885.72;5058883;28;20060;-55
2023/01/20 01:00:58;;;;;;;44.97;19.15;;;;;;;10.33;100.00;100886.66;5060759;28;20037;-55
2023/01/20 01:03:26;;;;;;;47.65;18.88;;;;;;;9.80;100.00;100890.47;5061677;28;20037;-54
2023/01/20 01:05:52;;;;;;;47.80;19.45;;;;;;;9.54;100.00;100881.13;5062141;28;20491;-53
2023/01/20 01:08:18;;;;;;;49.33;17.30;;;;;;;9.33;100.00;100882.75;5059910;28;20094;-52
2023/01/20 01:10:44;;;;;;;48.33;18.93;;;;;;;9.91;100.00;100886.47;5058450;28;20030;-52
2023/01/20 01:13:10;;;;;;;45.77;19.00;;;;;;;9.98;100.00;100894.56;5058141;28;20271;-53
2023/01/20 01:15:36;;;;;;;43.75;18.48;;;;;;;9.59;100.00;100883.25;5061672;28;20045;-51
2023/01/20 01:18:02;;;;;;;46.22;18.15;;;;;;;9.64;100.00;100888.00;5061340;28;20048;-51
2023/01/20 01:20:29;;;;;;;48.28;19.55;;;;;;;9.81;100.00;100889.44;5062934;28;20034;-57
2023/01/20 01:22:54;;;;;;;50.75;18.92;;;;;;;10.18;100.00;100905.44;5059444;28;20089;-53
2023/01/20 01:25:20;;;;;;;47.60;20.17;;;;;;;10.05;100.00;100898.13;5062786;28;20057;-52
2023/01/20 01:27:45;;;;;;;47.85;19.80;;;;;;;10.02;100.00;100903.84;5059717;28;20108;-53
2023/01/20 01:30:11;;;;;;;54.60;21.53;;;;;;;10.18;100.00;100908.09;5063726;28;20094;-53
2023/01/20 01:32:37;;;;;;;52.72;21.15;;;;;;;10.12;100.00;100915.03;5057669;28;20032;-49
2023/01/20 01:35:03;;;;;;;52.57;21.87;;;;;;;10.14;100.00;100910.31;5059989;28;20044;-54
2023/01/20 01:37:29;;;;;;;53.78;22.50;;;;;;;10.33;100.00;100916.03;5063102;28;20064;-51
2023/01/20 01:39:54;;;;;;;59.97;22.63;;;;;;;9.51;100.00;100908.22;5059624;28;20025;-50
2023/01/20 01:42:24;;;;;;;66.60;25.83;;;;;;;9.14;100.00;100905.50;5060896;28;20273;-55
2023/01/20 01:45:11;;;;;;;65.75;25.40;;;;;;;9.77;100.00;100909.53;5057532;28;20038;-52
2023/01/20 01:47:43;;;;;;;68.75;24.42;;;;;;;9.89;100.00;100912.53;5056939;28;20033;-51
2023/01/20 01:50:18;;;;;;;67.35;26.30;;;;;;;9.37;100.00;100911.72;5063930;28;20054;-53
2023/01/20 01:52:49;;;;;;;72.60;26.75;;;;;;;9.55;100.00;100909.50;5057224;28;20088;-54
2023/01/20 01:55:17;;;;;;;78.38;28.20;;;;;;;9.83;100.00;100916.78;5059222;28;20025;-52
2023/01/20 01:57:43;;;;;;;78.35;27.63;;;;;;;9.75;100.00;100915.06;5061549;28;20037;-52
2023/01/20 02:00:09;;;;;;;60.53;23.48;;;;;;;9.04;100.00;100919.09;5064954;28;20048;-52
2023/01/20 02:02:40;;;;;;;75.97;27.38;;;;;;;9.01;100.00;100914.13;5059295;28;20044;-52
2023/01/20 02:05:06;;;;;;;74.68;28.20;;;;;;;9.55;100.00;100925.50;5059015;28;20032;-51
2023/01/20 02:07:33;;;;;;;78.53;25.33;;;;;;;8.87;100.00;100925.59;5054800;28;20036;-51
2023/01/20 02:10:00;;;;;;;71.85;26.17;;;;;;;9.12;100.00;100942.19;5062775;28;20095;-55
2023/01/20 02:12:25;;;;;;;;;;;;;;;9.78;100.00;100926.38;5060554;28;20090;-53
2023/01/20 02:14:54;;;;;;;83.63;28.13;;;;;;;9.93;100.00;100919.16;5059620;28;19916;-51
2023/01/20 02:17:30;;;;;;;91.75;28.05;;;;;;;9.65;100.00;100929.72;5057101;28;20044;-54
2023/01/20 02:20:26;;;;;;;80.95;28.75;;;;;;;9.54;100.00;100933.69;5062376;28;20056;-52
2023/01/20 02:23:10;;;;;;;85.65;28.42;;;;;;;9.46;100.00;100931.97;5055751;28;20029;-52
2023/01/20 02:26:09;;;;;;;105.45;32.35;;;;;;;9.81;100.00;100937.53;5064294;28;20097;-53
2023/01/20 02:29:00;;;;;;;92.57;30.90;;;;;;;9.86;100.00;100931.63;5053658;28;20037;-54
2023/01/20 02:32:05;;;;;;;91.68;29.67;;;;;;;10.24;100.00;100928.72;5055557;28;20033;-54
2023/01/20 02:34:48;;;;;;;89.43;27.92;;;;;;;10.26;100.00;100937.38;5054451;28;20059;-55
2023/01/20 02:37:22;;;;;;;99.53;33.20;;;;;;;10.28;100.00;100934.50;5051477;28;20029;-51
2023/01/20 02:40:10;;;;;;;100.88;30.20;;;;;;;9.84;100.00;100937.16;5057374;28;20029;-51
2023/01/20 02:42:39;;;;;;;;;;;;;;;9.63;100.00;100932.59;5057285;28;20083;-53
2023/01/20 02:45:13;;;;;;;99.65;29.60;;;;;;;9.30;100.00;100933.81;5055760;28;19917;-49
2023/01/20 02:47:49;;;;;;;117.05;32.17;;;;;;;9.52;100.00;100935.72;5058275;28;20047;-52
2023/01/20 02:50:21;;;;;;;106.60;32.47;;;;;;;9.83;100.00;100930.16;5054422;28;20033;-49
2023/01/20 02:52:52;;;;;;;103.85;32.47;;;;;;;9.81;100.00;100940.19;5059765;28;20045;-52
2023/01/20 02:55:45;;;;;;;115.38;31.98;;;;;;;10.26;100.00;100940.03;5064462;28;20105;-49
2023/01/20 02:58:46;;;;;;;114.97;32.83;;;;;;;9.93;100.00;100937.06;5054679;28;20042;-54
2023/01/20 03:01:19;;;;;;;104.05;32.45;;;;;;;9.12;100.00;100931.53;5052345;28;20057;-52
2023/01/20 03:03:46;;;;;;;98.63;30.92;;;;;;;9.81;100.00;100924.16;5054355;28;20041;-51
2023/01/20 03:06:26;;;;;;;121.72;31.67;;;;;;;9.71;100.00;100929.00;5055600;28;20033;-50
2023/01/20 03:08:55;;;;;;;112.95;32.65;;;;;;;9.71;100.00;100932.47;5056842;28;20082;-53
2023/01/20 03:11:21;;;;;;;111.10;32.65;;;;;;;9.29;100.00;100934.84;5052942;28;20040;-54
2023/01/20 03:13:58;;;;;;;110.35;34.20;;;;;;;9.58;100.00;100935.00;5055207;28;20056;-49
2023/01/20 03:16:26;;;;;;;115.72;33.03;;;;;;;9.08;100.00;100932.06;5056431;28;20029;-54
2023/01/20 03:18:54;;;;;;;101.03;31.30;;;;;;;9.46;100.00;100937.31;5057316;28;20030;-49
2023/01/20 03:21:20;;;;;;;111.03;31.42;;;;;;;9.99;100.00;100955.81;5057376;28;20097;-48
2023/01/20 03:23:50;;;;;;;101.97;30.85;;;;;;;9.46;100.00;100945.31;5054555;28;20076;-52
2023/01/20 03:26:17;;;;;;;117.93;33.42;;;;;;;9.18;100.00;100953.97;5059751;28;20092;-52
2023/01/20 03:28:45;;;;;;;106.32;30.98;;;;;;;8.33;100.00;100954.84;5054670;28;20044;-55
2023/01/20 03:31:30;;;;;;;106.80;31.77;;;;;;;9.92;100.00;100968.25;5038831;28;20056;-56
2023/01/20 03:33:59;;;;;;;98.90;29.73;;;;;;;9.04;100.00;100959.13;4520264;28;15034321;-55
2023/01/20 03:36:28;;;;;;;102.50;30.75;;;;;;;9.23;100.00;100966.75;5061880;28;20041;-51
2023/01/20 03:38:55;;;;;;;102.05;30.02;;;;;;;8.80;100.00;100970.03;5057509;28;20033;-51
2023/01/20 03:41:50;;;;;;;101.03;30.77;;;;;;;9.60;100.00;100968.50;5061977;28;20029;-52
2023/01/20 03:44:31;;;;;;;86.68;28.13;;;;;;;9.95;100.00;100973.22;5062764;28;20037;-52
2023/01/20 03:47:14;;;;;;;99.72;28.77;;;;;;;9.60;100.00;100970.34;5058972;28;20072;-52
2023/01/20 03:50:04;;;;;;;93.15;28.38;;;;;;;9.57;100.00;100966.19;5057560;28;20029;-53
2023/01/20 03:52:40;;;;;;;108.38;29.17;;;;;;;9.54;100.00;100984.41;5059172;28;20089;-49
2023/01/20 03:55:21;;;;;;;101.93;29.90;;;;;;;10.28;100.00;100974.59;5060641;28;20025;-51
2023/01/20 03:57:55;;;;;;;105.72;31.58;;;;;;;9.67;100.00;100976.59;5059438;28;20041;-56
2023/01/20 04:00:23;;;;;;;103.63;29.00;;;;;;;9.65;100.00;100983.13;5059121;28;20089;-53
2023/01/20 04:02:53;;;;;;;106.95;32.13;;;;;;;9.14;100.00;100977.53;5059151;28;20057;-54
2023/01/20 04:05:20;;;;;;;89.20;28.58;;;;;;;9.55;100.00;100980.72;5062138;28;20036;-54
2023/01/20 04:07:47;;;;;;;101.07;31.80;;;;;;;10.10;100.00;100981.19;5059604;28;20104;-53
2023/01/20 04:10:14;;;;;;;;;;;;;;;9.39;100.00;100974.59;5063913;28;20037;-55
2023/01/20 04:12:40;;;;;;;84.97;25.73;;;;;;;8.85;100.00;100976.44;5060573;28;19940;-54
2023/01/20 04:15:06;;;;;;;111.28;30.00;;;;;;;8.93;100.00;100980.88;5059974;28;20052;-52
2023/01/20 04:17:32;;;;;;;100.25;29.00;;;;;;;9.71;100.00;100974.41;5062175;28;20040;-53
2023/01/20 04:20:05;;;;;;;95.53;30.90;;;;;;;9.07;100.00;100968.56;5058353;28;20101;-53
2023/01/20 04:22:37;;;;;;;96.50;26.90;;;;;;;9.82;100.00;100981.09;5055624;28;20037;-52
2023/01/20 04:25:23;;;;;;;97.97;26.80;;;;;;;9.88;100.00;100980.34;5058055;28;20060;-51
2023/01/20 04:27:48;;;;;;;99.53;31.98;;;;;;;9.66;100.00;100974.09;5058977;28;20055;-54
2023/01/20 04:30:14;;;;;;;106.07;31.93;;;;;;;9.98;100.00;100983.53;5059715;28;20025;-49
2023/01/20 04:32:39;;;;;;;113.53;32.73;;;;;;;9.38;100.00;100978.28;5059969;28;20072;-53
2023/01/20 04:35:05;;;;;;;89.57;28.00;;;;;;;9.21;100.00;100987.47;5055652;28;20081;-55
2023/01/20 04:37:30;;;;;;;95.55;27.35;;;;;;;9.38;100.00;100986.28;5062392;28;20045;-52
2023/01/20 04:39:56;;;;;;;93.90;30.17;;;;;;;9.49;100.00;100986.81;5056046;28;20056;-55
2023/01/20 04:42:21;;;;;;;98.22;29.02;;;;;;;9.31;100.00;100991.53;5058135;28;20056;-49
2023/01/20 04:44:47;;;;;;;99.73;33.97;;;;;;;8.92;100.00;100992.56;5059309;28;20044;-51
2023/01/20 04:47:12;;;;;;;99.63;31.70;;;;;;;9.52;100.00;100983.78;5061925;28;20038;-53
2023/01/20 04:49:38;;;;;;;96.75;31.20;;;;;;;9.44;100.00;100987.38;5060793;28;20048;-51
2023/01/20 04:52:03;;;;;;;96.00;29.07;;;;;;;9.28;100.00;100991.88;5058037;28;20052;-50
2023/01/20 04:54:29;;;;;;;108.63;30.92;;;;;;;9.60;100.00;100995.19;5059065;28;20056;-51
2023/01/20 04:56:54;;;;;;;96.20;29.93;;;;;;;9.31;100.00;100998.69;5059614;28;20037;-54
2023/01/20 04:59:20;;;;;;;101.17;30.87;;;;;;;9.39;100.00;101001.28;5058914;28;20136;-55
2023/01/20 05:01:45;;;;;;;105.17;30.10;;;;;;;8.93;100.00;100999.56;5057196;28;20051;-52
2023/01/20 05:04:11;;;;;;;108.20;33.00;;;;;;;9.27;100.00;100987.56;5043914;28;20039;-51
2023/01/20 05:06:37;;;;;;;98.70;28.08;;;;;;;9.90;100.00;101003.16;5060200;28;20033;-49
2023/01/20 05:09:02;;;;;;;103.17;29.63;;;;;;;9.71;100.00;100998.44;5057579;28;20052;-55
2023/01/20 05:11:27;;;;;;;97.60;27.30;;;;;;;9.79;100.00;100989.47;5059230;28;20033;-49
2023/01/20 05:13:53;;;;;;;110.05;31.85;;;;;;;9.68;100.00;101006.78;5057614;28;20064;-53
2023/01/20 05:16:22;;;;;;;109.87;30.70;;;;;;;8.63;100.00;101012.81;5056373;28;20062;-50
2023/01/20 05:18:49;;;;;;;127.40;36.25;;;;;;;8.54;100.00;101001.38;5062621;28;20271;-51
2023/01/20 05:21:14;;;;;;;105.55;31.88;;;;;;;8.64;100.00;100998.47;5054975;28;20044;-49
2023/01/20 05:23:40;;;;;;;113.67;33.63;;;;;;;9.20;100.00;101002.63;5056799;28;20077;-54
2023/01/20 05:26:05;;;;;;;105.50;29.30;;;;;;;8.48;100.00;101007.38;5056948;28;20502;-50
2023/01/20 05:28:31;;;;;;;91.53;29.67;;;;;;;8.45;100.00;101008.56;5061573;28;20036;-50
2023/01/20 05:30:57;;;;;;;110.27;33.30;;;;;;;8.72;100.00;101006.38;5064563;28;20041;-53
2023/01/20 05:33:22;;;;;;;130.60;36.93;;;;;;;8.94;100.00;101003.88;5062694;28;20046;-52
2023/01/20 05:35:48;;;;;;;119.27;34.43;;;;;;;8.82;100.00;101013.34;5059676;28;20286;-51
2023/01/20 05:38:13;;;;;;;118.57;33.88;;;;;;;8.91;100.00;101009.56;5056411;28;20059;-55
2023/01/20 05:40:39;;;;;;;97.53;27.43;;;;;;;8.77;100.00;100994.38;5059770;28;20045;-54
2023/01/20 05:43:04;;;;;;;109.30;32.57;;;;;;;9.43;100.00;101001.72;5059223;28;20286;-51
2023/01/20 05:45:31;;;;;;;110.50;33.27;;;;;;;9.07;100.00;100995.25;5063263;28;20120;-50
2023/01/20 05:47:58;;;;;;;122.90;34.20;;;;;;;9.41;100.00;101003.75;5058666;28;20274;-51
2023/01/20 05:50:24;;;;;;;;;;;;;;;9.64;100.00;101010.84;5063616;28;20045;-52
2023/01/20 05:52:50;;;;;;;122.30;32.35;;;;;;;9.73;100.00;101009.75;5057423;28;19923;-56
2023/01/20 05:55:16;;;;;;;121.32;35.40;;;;;;;10.15;100.00;101016.22;5056299;28;20093;-50
2023/01/20 05:57:42;;;;;;;101.15;31.65;;;;;;;10.27;100.00;101024.59;5056200;28;20033;-54
2023/01/20 06:00:08;;;;;;;110.13;33.00;;;;;;;10.55;100.00;101033.72;5056625;28;20026;-49
2023/01/20 06:02:33;;;;;;;85.35;28.17;;;;;;;10.26;100.00;101038.94;5057807;28;20044;-53
2023/01/20 06:05:02;;;;;;;111.95;33.08;;;;;;;9.85;100.00;101026.94;5059232;28;20033;-51
2023/01/20 06:07:28;;;;;;;111.22;33.80;;;;;;;10.22;100.00;101020.81;5052881;28;20047;-54
2023/01/20 06:09:55;;;;;;;111.45;30.67;;;;;;;10.02;100.00;101024.06;5055921;28;20072;-50
2023/01/20 06:12:20;;;;;;;94.45;32.97;;;;;;;10.41;100.00;101028.25;5055031;28;20029;-53
2023/01/20 06:14:46;;;;;;;106.50;32.42;;;;;;;9.55;100.00;101010.94;5058309;28;20041;-52
2023/01/20 06:17:11;;;;;;;97.03;30.53;;;;;;;9.78;100.00;101003.84;5060725;28;20041;-54
2023/01/20 06:19:37;;;;;;;98.68;28.65;;;;;;;9.83;100.00;101007.59;5055663;28;20033;-53
2023/01/20 06:22:03;;;;;;;89.20;26.47;;;;;;;9.06;100.00;101028.28;5057366;28;20048;-48
2023/01/20 06:24:29;;;;;;;94.13;29.33;;;;;;;9.29;100.00;101017.56;5059534;28;20048;-48
2023/01/20 06:26:54;;;;;;;78.10;24.83;;;;;;;8.68;100.00;101031.75;5059272;28;20079;-50
2023/01/20 06:29:20;;;;;;;88.53;27.43;;;;;;;8.92;100.00;101027.25;5056401;28;20274;-51
2023/01/20 06:31:46;;;;;;;90.03;28.10;;;;;;;9.47;100.00;101022.53;5058190;28;20040;-51
2023/01/20 06:34:12;;;;;;;100.30;30.35;;;;;;;9.22;100.00;101029.97;5053604;28;20370;-51
2023/01/20 06:36:37;;;;;;;97.63;30.13;;;;;;;8.85;100.00;101036.97;5058981;28;20033;-51
2023/01/20 06:39:03;;;;;;;85.93;27.73;;;;;;;9.29;100.00;101033.59;5054057;28;20033;-52
2023/01/20 06:41:29;;;;;;;95.77;27.23;;;;;;;8.94;100.00;101038.56;5057321;28;20057;-50
2023/01/20 06:43:54;;;;;;;90.50;28.87;;;;;;;9.31;100.00;101052.91;5055676;28;20040;-52
2023/01/20 06:46:21;;;;;;;100.00;29.53;;;;;;;9.98;100.00;101033.50;5055611;28;20346;-50
2023/01/20 06:48:47;;;;;;;94.38;29.15;;;;;;;10.21;100.00;101035.19;5054419;28;20052;-52
2023/01/20 06:51:18;;;;;;;90.50;28.65;;;;;;;9.84;100.00;101043.19;5055648;28;20029;-51
2023/01/20 06:53:44;;;;;;;98.80;29.17;;;;;;;10.09;100.00;101038.34;5056165;28;20787;-50
2023/01/20 06:56:11;;;;;;;96.03;31.42;;;;;;;9.77;100.00;101051.09;5054120;28;20063;-48
2023/01/20 06:58:38;;;;;;;90.28;29.90;;;;;;;9.80;100.00;101053.38;5060290;28;20034;-52
2023/01/20 07:01:07;;;;;;;91.75;29.10;;;;;;;9.47;100.00;101051.09;5060443;28;20037;-53
2023/01/20 07:03:34;;;;;;;92.57;28.08;;;;;;;10.21;100.00;101053.91;5059511;28;20044;-52
2023/01/20 07:06:02;;;;;;;94.10;26.83;;;;;;;10.34;100.00;101051.38;5056961;28;20025;-52
2023/01/20 07:08:28;;;;;;;101.45;29.77;;;;;;;10.10;100.00;101065.91;5058911;28;20049;-50
2023/01/20 07:10:54;;;;;;;83.07;28.38;;;;;;;9.71;100.00;101059.84;5059000;28;20045;-51
2023/01/20 07:13:20;;;;;;;83.70;27.27;;;;;;;9.74;100.00;101056.81;5058480;28;20025;-50
2023/01/20 07:15:45;;;;;;;93.95;28.25;;;;;;;10.26;100.00;101065.66;5058339;28;20044;-53
2023/01/20 07:18:11;;;;;;;86.70;27.60;;;;;;;9.88;100.00;101071.97;5059355;28;20040;-54
2023/01/20 07:20:37;;;;;;;96.17;28.50;;;;;;;10.25;100.00;101064.00;5055742;28;20109;-51
2023/01/20 07:23:04;;;;;;;92.60;28.75;;;;;;;10.48;100.00;101073.75;5057660;28;20063;-52
2023/01/20 07:25:29;;;;;;;94.80;27.58;;;;;;;10.70;100.00;101065.75;5060749;28;20033;-51
2023/01/20 07:27:56;;;;;;;93.60;28.70;;;;;;;11.05;100.00;101069.38;5062217;28;20040;-51
2023/01/20 07:30:23;;;;;;;80.28;25.92;;;;;;;9.95;100.00;101079.28;5057952;28;20029;-48
2023/01/20 07:32:48;;;;;;;100.85;28.98;;;;;;;9.89;100.00;101076.31;5049964;28;20033;-54
2023/01/20 07:35:14;;;;;;;112.03;30.52;;;;;;;10.25;100.00;101074.69;5055237;28;20044;-48
2023/01/20 07:37:39;;;;;;;95.53;30.75;;;;;;;10.44;100.00;101075.16;5062252;28;20033;-49
2023/01/20 07:40:06;;;;;;;92.15;27.40;;;;;;;10.73;100.00;101084.13;5056330;28;20045;-51
2023/01/20 07:42:32;;;;;;;90.25;28.10;;;;;;;9.69;100.00;101076.03;5059798;28;20093;-53
2023/01/20 07:44:57;;;;;;;74.90;24.57;;;;;;;9.60;100.00;101074.50;5057334;28;20060;-51
2023/01/20 07:47:22;;;;;;;77.17;25.63;;;;;;;9.68;100.00;101069.06;5053555;28;20274;-52
2023/01/20 07:49:48;;;;;;;96.22;30.65;;;;;;;9.73;100.00;101076.53;5056331;28;20235;-52
2023/01/20 07:52:14;;;;;;;98.27;28.83;;;;;;;9.68;100.00;101076.22;5058904;28;20072;-50
2023/01/20 07:54:39;;;;;;;84.13;26.60;;;;;;;9.52;100.00;101086.06;5056708;28;20033;-53
2023/01/20 07:57:04;;;;;;;95.50;26.03;;;;;;;10.10;100.00;101082.75;5060299;28;20068;-53
2023/01/20 07:59:30;;;;;;;89.53;27.98;;;;;;;10.25;100.00;101077.38;5054635;28;20026;-49
2023/01/20 08:01:56;;;;;;;92.40;27.10;;;;;;;10.06;100.00;101086.81;5060278;28;20052;-54
2023/01/20 08:04:21;;;;;;;88.93;28.00;;;;;;;10.11;100.00;101089.75;5054918;28;20040;-51
2023/01/20 08:06:47;;;;;;;93.22;30.92;;;;;;;9.40;100.00;101088.34;5059822;28;20043;-54
2023/01/20 08:09:13;;;;;;;91.07;29.40;;;;;;;9.70;100.00;101084.91;5057057;28;20056;-52
2023/01/20 08:11:39;;;;;;;90.68;29.17;;;;;;;9.84;100.00;101084.06;5055292;28;20043;-50
2023/01/20 08:14:05;;;;;;;90.47;29.13;;;;;;;9.51;100.00;101087.09;5056025;28;20057;-55
2023/01/20 08:16:31;;;;;;;89.38;27.83;;;;;;;9.57;100.00;101105.03;5060424;28;20030;-55
2023/01/20 08:18:57;;;;;;;80.20;26.73;;;;;;;10.06;100.00;101081.47;5057645;28;20032;-54
2023/01/20 08:21:26;;;;;;;87.10;27.50;;;;;;;9.70;100.00;101092.91;5057426;28;20097;-52
2023/01/20 08:23:54;;;;;;;92.65;27.45;;;;;;;10.47;100.00;101104.19;5058470;28;20101;-52
2023/01/20 08:26:23;;;;;;;93.03;27.15;;;;;;;10.19;100.00;101102.19;5059650;28;20144;-52
2023/01/20 08:28:48;;;;;;;85.97;25.85;;;;;;;9.22;100.00;101102.00;5058815;28;20042;-52
2023/01/20 08:31:18;;;;;;;75.70;23.67;;;;;;;9.86;100.00;101091.91;5057845;28;20037;-55
2023/01/20 08:33:44;;;;;;;87.50;26.05;;;;;;;10.33;100.00;101103.19;5063365;28;20052;-53
2023/01/20 08:36:13;;;;;;;80.90;26.63;;;;;;;10.10;100.00;101106.00;5061697;28;20051;-54
2023/01/20 08:38:39;;;;;;;92.10;28.17;;;;;;;9.55;100.00;101112.41;5059622;28;20040;-53
2023/01/20 08:41:10;;;;;;;93.30;27.35;;;;;;;10.03;100.00;101119.25;5061276;28;20029;-49
2023/01/20 08:43:35;;;;;;;90.28;27.17;;;;;;;10.18;100.00;101114.75;5057706;28;20076;-51
2023/01/20 08:46:05;;;;;;;84.90;26.63;;;;;;;10.09;100.00;101110.47;5062740;28;20064;-48
2023/01/20 08:48:31;;;;;;;84.45;27.52;;;;;;;9.90;100.00;101114.56;5064054;28;20033;-51
2023/01/20 08:50:56;;;;;;;74.67;23.47;;;;;;;9.73;100.00;101121.91;5060751;28;20055;-51
2023/01/20 08:53:21;;;;;;;89.93;25.30;;;;;;;9.36;100.00;101116.44;5059662;28;20313;-50
2023/01/20 08:55:55;;;;;;;80.87;25.70;;;;;;;9.85;100.00;101117.78;5061878;28;20037;-53
2023/01/20 08:58:21;;;;;;;70.85;25.30;;;;;;;9.76;100.00;101118.88;5058053;28;20029;-59
2023/01/20 09:00:47;;;;;;;77.38;25.67;;;;;;;10.58;100.00;101118.91;5066604;28;20063;-53
2023/01/20 09:03:12;;;;;;;67.00;22.53;;;;;;;9.86;100.00;101116.75;5061260;28;20028;-53
2023/01/20 09:05:37;;;;;;;72.37;24.90;;;;;;;10.00;100.00;101120.44;5060813;28;20048;-55
2023/01/20 09:08:04;;;;;;;68.32;24.20;;;;;;;10.26;100.00;101123.66;5063936;28;20040;-54
2023/01/20 09:10:33;;;;;;;72.22;24.15;;;;;;;9.53;100.00;101122.44;5062094;28;20049;-52
2023/01/20 09:12:59;;;;;;;67.60;22.55;;;;;;;9.54;100.00;101125.94;5063882;28;20048;-53
2023/01/20 09:15:24;;;;;;;73.07;25.47;;;;;;;9.75;100.00;101141.25;5065943;28;20025;-51
2023/01/20 09:17:50;;;;;;;69.28;23.15;;;;;;;9.76;100.00;101141.06;5061158;28;20284;-52
2023/01/20 09:20:15;;;;;;;81.05;25.23;;;;;;;10.48;100.00;101132.59;5061940;28;20032;-49
2023/01/20 09:22:41;;;;;;;78.35;24.00;;;;;;;10.97;100.00;101141.78;5059298;28;20047;-52
2023/01/20 09:25:08;;;;;;;70.27;21.83;;;;;;;10.55;100.00;101135.34;5060952;28;20025;-52
2023/01/20 09:27:34;;;;;;;64.97;25.35;;;;;;;9.89;100.00;101143.09;5059948;28;20097;-54
2023/01/20 09:30:00;;;;;;;71.63;23.73;;;;;;;10.67;100.00;101141.88;5058595;28;20033;-51
2023/01/20 09:32:26;;;;;;;58.72;21.08;;;;;;;10.56;100.00;101150.38;5059790;28;20058;-51
2023/01/20 09:34:52;;;;;;;59.50;20.93;;;;;;;10.17;100.00;101142.47;5061064;28;20049;-54
2023/01/20 09:46:29;;;;;;;65.88;22.73;;;;;;;11.12;100.00;101156.94;5033013;28;20042;-53
2023/01/20 09:54:51;;;;;;;56.55;21.23;;;;;;;10.27;100.00;101157.41;5054741;28;20052;-53
2023/01/20 09:57:21;;;;;;;54.65;20.80;;;;;;;10.18;100.00;101157.50;5059073;28;20112;-53
2023/01/20 09:59:59;;;;;;;43.85;17.60;;;;;;;10.12;100.00;101168.91;5054710;28;20009;-49
2023/01/20 10:02:32;;;;;;;49.90;20.58;;;;;;;9.84;100.00;101168.72;5061315;28;20101;-54
2023/01/20 10:05:07;;;;;;;53.17;19.63;;;;;;;10.06;100.00;101158.97;5059204;28;20041;-52
2023/01/20 10:07:45;;;;;;;53.25;20.20;;;;;;;10.16;100.00;101164.88;5057418;28;20041;-49
2023/01/20 10:10:51;;;;;;;54.15;19.02;;;;;;;10.61;100.00;101172.06;5055441;28;20025;-53
2023/01/20 10:13:24;;;;;;;53.08;18.85;;;;;;;10.29;100.00;101176.75;5071470;28;20033;-54
2023/01/20 10:15:53;;;;;;;51.65;18.20;;;;;;;10.27;100.00;101173.44;5058105;28;20042;-51
2023/01/20 10:18:44;;;;;;;52.65;19.23;;;;;;;10.18;100.00;101186.06;5060071;28;20097;-52
2023/01/20 10:21:21;;;;;;;49.72;19.67;;;;;;;9.91;100.00;101188.34;5057748;28;20037;-53
2023/01/20 10:23:50;;;;;;;53.35;20.25;;;;;;;10.05;100.00;101181.34;5058752;28;20128;-55
2023/01/20 10:26:45;;;;;;;46.85;18.30;;;;;;;9.62;100.00;101189.97;5061359;28;20067;-53
2023/01/20 10:29:37;;;;;;;54.90;21.02;;;;;;;11.18;100.00;101190.97;5052111;28;20054;-54
2023/01/20 10:32:29;;;;;;;54.83;19.33;;;;;;;10.24;100.00;101195.19;5061221;28;20033;-54
2023/01/20 10:34:58;;;;;;;56.85;19.90;;;;;;;9.61;100.00;101202.47;5056438;28;20049;-53
2023/01/20 10:37:24;;;;;;;61.00;23.02;;;;;;;10.44;100.00;101192.81;5060461;28;20036;-48
2023/01/20 10:40:06;;;;;;;53.90;20.70;;;;;;;10.46;100.00;101199.63;5056818;28;20037;-52
2023/01/20 10:42:32;;;;;;;48.97;20.65;;;;;;;10.26;100.00;101196.66;5060973;28;20033;-49
2023/01/20 10:44:59;;;;;;;49.70;18.85;;;;;;;10.12;100.00;101208.19;5055051;28;20059;-53
2023/01/20 10:47:31;;;;;;;52.55;20.80;;;;;;;10.14;100.00;101201.63;5056830;28;20129;-51
2023/01/20 10:50:15;;;;;;;56.08;20.10;;;;;;;10.67;100.00;101203.41;5072880;28;20068;-51
2023/01/20 10:52:44;;;;;;;55.13;20.23;;;;;;;10.70;100.00;101200.34;5058832;28;20041;-50
2023/01/20 10:55:31;;;;;;;52.83;19.90;;;;;;;10.95;100.00;101199.16;5058263;28;20045;-52
2023/01/20 10:58:12;;;;;;;51.60;20.58;;;;;;;11.06;100.00;101193.31;5057777;28;20061;-51
2023/01/20 11:00:40;;;;;;;56.90;19.92;;;;;;;10.67;100.00;101206.06;5054334;28;20035;-55
2023/01/20 11:03:11;;;;;;;49.80;20.98;;;;;;;10.89;100.00;101198.09;5062387;28;20025;-52
2023/01/20 11:05:37;;;;;;;45.45;19.10;;;;;;;10.51;100.00;101200.91;5058582;28;20029;-52
2023/01/20 11:08:13;;;;;;;48.25;20.48;;;;;;;10.56;100.00;101193.16;5060104;28;20033;-53
2023/01/20 11:10:40;;;;;;;52.15;21.75;;;;;;;10.31;100.00;101206.78;5056355;28;20048;-56
2023/01/20 11:13:09;;;;;;;46.97;19.83;;;;;;;10.39;100.00;101198.69;5058623;28;20050;-49
2023/01/20 11:15:39;;;;;;;45.95;19.08;;;;;;;10.44;100.00;101201.66;5057629;28;20286;-55
2023/01/20 11:18:14;;;;;;;53.97;21.48;;;;;;;10.19;100.00;101219.78;5059830;28;20033;-52
2023/01/20 11:20:47;;;;;;;57.30;18.80;;;;;;;10.21;100.00;101215.09;5058559;28;20064;-54
2023/01/20 11:23:31;;;;;;;52.92;21.17;;;;;;;10.91;100.00;101206.75;5057200;28;20097;-52
2023/01/20 11:26:10;;;;;;;47.25;19.38;;;;;;;11.14;100.00;101206.59;5056947;28;20033;-51
2023/01/20 11:28:58;;;;;;;53.05;20.13;;;;;;;10.98;100.00;101210.34;5057500;28;20038;-53
2023/01/20 11:31:38;;;;;;;;;;;;;;;10.50;100.00;101207.28;5057456;28;20033;-48